Aviation Digital Data Service (ADDS)

Output produced by METARs form (1640 UTC 16 June 2019)
found at http://www.aviationweather.gov/metar/data/
 
METAR text: RJNT 161200Z 25006KT 9999 -SHRA FEW005 SCT010 BKN015 16/14 Q1007
Conditions at: RJNT (TOYAMA AIRPORT , JP) observed 1200 UTC 16 June 2019
Temperature: 16.0°C (61°F)
Dewpoint: 14.0°C (57°F) [RH = 88%]
Pressure (altimeter): 29.73 inches Hg (1007.0 mb)
Winds: from the WSW (250 degrees) at 7 MPH (6 knots; 3.1 m/s)
Visibility: 6 or more miles (10+ km)
Ceiling: 1500 feet AGL
Clouds: few clouds at 500 feet AGL
scattered clouds at 1000 feet AGL
broken clouds at 1500 feet AGL
Weather: -SHRA  (light rain showers)

METAR text: RJNT 161100Z 26009KT 220V290 9999 -SHRA FEW010 SCT020 BKN030 16/14 Q1006
Conditions at: RJNT (TOYAMA AIRPORT , JP) observed 1100 UTC 16 June 2019
Temperature: 16.0°C (61°F)
Dewpoint: 14.0°C (57°F) [RH = 88%]
Pressure (altimeter): 29.70 inches Hg (1006.0 mb)
Winds: from the W (260 degrees) at 10 MPH (9 knots; 4.6 m/s)
Visibility: 6 or more miles (10+ km)
Ceiling: 3000 feet AGL
Clouds: few clouds at 1000 feet AGL
scattered clouds at 2000 feet AGL
broken clouds at 3000 feet AGL
Weather: -SHRA  (light rain showers)

METAR text: RJNT 161000Z 26009KT 9999 -SHRA FEW005 SCT010 BKN015 16/14 Q1005
Conditions at: RJNT (TOYAMA AIRPORT , JP) observed 1000 UTC 16 June 2019
Temperature: 16.0°C (61°F)
Dewpoint: 14.0°C (57°F) [RH = 88%]
Pressure (altimeter): 29.68 inches Hg (1005.0 mb)
Winds: from the W (260 degrees) at 10 MPH (9 knots; 4.6 m/s)
Visibility: 6 or more miles (10+ km)
Ceiling: 1500 feet AGL
Clouds: few clouds at 500 feet AGL
scattered clouds at 1000 feet AGL
broken clouds at 1500 feet AGL
Weather: -SHRA  (light rain showers)

METAR text: RJNT 160900Z 25009KT 9999 -SHRA FEW005 SCT010 BKN015 16/15 Q1004
Conditions at: RJNT (TOYAMA AIRPORT , JP) observed 0900 UTC 16 June 2019
Temperature: 16.0°C (61°F)
Dewpoint: 15.0°C (59°F) [RH = 94%]
Pressure (altimeter): 29.65 inches Hg (1004.0 mb)
Winds: from the WSW (250 degrees) at 10 MPH (9 knots; 4.6 m/s)
Visibility: 6 or more miles (10+ km)
Ceiling: 1500 feet AGL
Clouds: few clouds at 500 feet AGL
scattered clouds at 1000 feet AGL
broken clouds at 1500 feet AGL
Weather: -SHRA  (light rain showers)

METAR text: RJNT 160800Z 26011KT 9999 -SHRA FEW005 SCT010 BKN030 17/15 Q1003
Conditions at: RJNT (TOYAMA AIRPORT , JP) observed 0800 UTC 16 June 2019
Temperature: 17.0°C (63°F)
Dewpoint: 15.0°C (59°F) [RH = 88%]
Pressure (altimeter): 29.62 inches Hg (1003.0 mb)
Winds: from the W (260 degrees) at 13 MPH (11 knots; 5.7 m/s)
Visibility: 6 or more miles (10+ km)
Ceiling: 3000 feet AGL
Clouds: few clouds at 500 feet AGL
scattered clouds at 1000 feet AGL
broken clouds at 3000 feet AGL
Weather: -SHRA  (light rain showers)

METAR text: RJNT 160700Z 25014KT 6000 -SHRA FEW005 SCT015 BKN020 17/15 Q1002
Conditions at: RJNT (TOYAMA AIRPORT , JP) observed 0700 UTC 16 June 2019
Temperature: 17.0°C (63°F)
Dewpoint: 15.0°C (59°F) [RH = 88%]
Pressure (altimeter): 29.59 inches Hg (1002.0 mb)
Winds: from the WSW (250 degrees) at 16 MPH (14 knots; 7.2 m/s)
Visibility: 4 miles ( 6 km)
Ceiling: 2000 feet AGL
Clouds: few clouds at 500 feet AGL
scattered clouds at 1500 feet AGL
broken clouds at 2000 feet AGL
Weather: -SHRA  (light rain showers)

METAR text: RJNT 160600Z 26011KT 230V290 9999 -SHRA FEW005 SCT015 BKN020 18/16 Q1001
Conditions at: RJNT (TOYAMA AIRPORT , JP) observed 0600 UTC 16 June 2019
Temperature: 18.0°C (64°F)
Dewpoint: 16.0°C (61°F) [RH = 88%]
Pressure (altimeter): 29.56 inches Hg (1001.0 mb)
Winds: from the W (260 degrees) at 13 MPH (11 knots; 5.7 m/s)
Visibility: 6 or more miles (10+ km)
Ceiling: 2000 feet AGL
Clouds: few clouds at 500 feet AGL
scattered clouds at 1500 feet AGL
broken clouds at 2000 feet AGL
Weather: -SHRA  (light rain showers)

METAR text: RJNT 160503Z 26015G29KT 9000 -SHRA FEW005 SCT015 BKN020 18/16 Q1000 RMK 1CU005 3CU015 5CU020 A2953
Conditions at: RJNT (TOYAMA AIRPORT , JP) observed 0503 UTC 16 June 2019
Temperature: 18.0°C (64°F)
Dewpoint: 16.0°C (61°F) [RH = 88%]
Pressure (altimeter): 29.53 inches Hg (1000.0 mb)
Winds: from the W (260 degrees) at 17 MPH (15 knots; 7.7 m/s)
gusting to 33 MPH (29 knots; 14.9 m/s)
Visibility: 6 miles ( 9 km)
Ceiling: 2000 feet AGL
Clouds: few clouds at 500 feet AGL
scattered clouds at 1500 feet AGL
broken clouds at 2000 feet AGL
Weather: -SHRA  (light rain showers)

METAR text: RJNT 160500Z 26014KT 230V290 9000 -SHRA FEW005 SCT015 BKN020 18/16 Q1000
Conditions at: RJNT (TOYAMA AIRPORT , JP) observed 0500 UTC 16 June 2019
Temperature: 18.0°C (64°F)
Dewpoint: 16.0°C (61°F) [RH = 88%]
Pressure (altimeter): 29.53 inches Hg (1000.0 mb)
Winds: from the W (260 degrees) at 16 MPH (14 knots; 7.2 m/s)
Visibility: 6 miles ( 9 km)
Ceiling: 2000 feet AGL
Clouds: few clouds at 500 feet AGL
scattered clouds at 1500 feet AGL
broken clouds at 2000 feet AGL
Weather: -SHRA  (light rain showers)

METAR text: RJNT 160429Z 27015G27KT 9999 -SHRA FEW010 BKN020 BKN030 19/16 Q0999 RMK 1CU010 5CU020 7CU030 A2952
Conditions at: RJNT (TOYAMA AIRPORT , JP) observed 0429 UTC 16 June 2019
Temperature: 19.0°C (66°F)
Dewpoint: 16.0°C (61°F) [RH = 83%]
Pressure (altimeter): 29.50 inches Hg (999.0 mb)
Winds: from the W (270 degrees) at 17 MPH (15 knots; 7.7 m/s)
gusting to 31 MPH (27 knots; 13.9 m/s)
Visibility: 6 or more miles (10+ km)
Ceiling: 2000 feet AGL
Clouds: few clouds at 1000 feet AGL
broken clouds at 2000 feet AGL
broken clouds at 3000 feet AGL
Weather: -SHRA  (light rain showers)

METAR text: RJNT 160400Z 29011KT 8000 -SHRA FEW010 BKN020 BKN030 18/16 Q0999
Conditions at: RJNT (TOYAMA AIRPORT , JP) observed 0400 UTC 16 June 2019
Temperature: 18.0°C (64°F)
Dewpoint: 16.0°C (61°F) [RH = 88%]
Pressure (altimeter): 29.50 inches Hg (999.0 mb)
Winds: from the WNW (290 degrees) at 13 MPH (11 knots; 5.7 m/s)
Visibility: 5 miles ( 8 km)
Ceiling: 2000 feet AGL
Clouds: few clouds at 1000 feet AGL
broken clouds at 2000 feet AGL
broken clouds at 3000 feet AGL
Weather: -SHRA  (light rain showers)

METAR text: RJNT 160300Z 25013G24KT 8000 -SHRA FEW010 BKN020 BKN030 18/17 Q0998
Conditions at: RJNT (TOYAMA AIRPORT , JP) observed 0300 UTC 16 June 2019
Temperature: 18.0°C (64°F)
Dewpoint: 17.0°C (63°F) [RH = 94%]
Pressure (altimeter): 29.47 inches Hg (998.0 mb)
Winds: from the WSW (250 degrees) at 15 MPH (13 knots; 6.7 m/s)
gusting to 28 MPH (24 knots; 12.3 m/s)
Visibility: 5 miles ( 8 km)
Ceiling: 2000 feet AGL
Clouds: few clouds at 1000 feet AGL
broken clouds at 2000 feet AGL
broken clouds at 3000 feet AGL
Weather: -SHRA  (light rain showers)

METAR text: RJNT 160235Z 25016G27KT 220V290 7000 -SHRA FEW010 SCT015 BKN030 18/17 Q0997 RMK 1CU010 4CU015 6CU030 A2947
Conditions at: RJNT (TOYAMA AIRPORT , JP) observed 0235 UTC 16 June 2019
Temperature: 18.0°C (64°F)
Dewpoint: 17.0°C (63°F) [RH = 94%]
Pressure (altimeter): 29.44 inches Hg (997.0 mb)
Winds: from the WSW (250 degrees) at 18 MPH (16 knots; 8.2 m/s)
gusting to 31 MPH (27 knots; 13.9 m/s)
Visibility: 4 miles ( 7 km)
Ceiling: 3000 feet AGL
Clouds: few clouds at 1000 feet AGL
scattered clouds at 1500 feet AGL
broken clouds at 3000 feet AGL
Weather: -SHRA  (light rain showers)

METAR text: RJNT 160222Z 25014G24KT 6000 SHRA FEW008 BKN015 BKN030 18/16 Q0997 RMK 1ST008 5CU015 6CU030 A2946
Conditions at: RJNT (TOYAMA AIRPORT , JP) observed 0222 UTC 16 June 2019
Temperature: 18.0°C (64°F)
Dewpoint: 16.0°C (61°F) [RH = 88%]
Pressure (altimeter): 29.44 inches Hg (997.0 mb)
Winds: from the WSW (250 degrees) at 16 MPH (14 knots; 7.2 m/s)
gusting to 28 MPH (24 knots; 12.3 m/s)
Visibility: 4 miles ( 6 km)
Ceiling: 1500 feet AGL
Clouds: few clouds at 800 feet AGL
broken clouds at 1500 feet AGL
broken clouds at 3000 feet AGL
Weather: SHRA  (rain showers)

METAR text: RJNT 160200Z 25016G27KT 9999 -SHRA FEW008 SCT020 BKN040 19/17 Q0997
Conditions at: RJNT (TOYAMA AIRPORT , JP) observed 0200 UTC 16 June 2019
Temperature: 19.0°C (66°F)
Dewpoint: 17.0°C (63°F) [RH = 88%]
Pressure (altimeter): 29.44 inches Hg (997.0 mb)
Winds: from the WSW (250 degrees) at 18 MPH (16 knots; 8.2 m/s)
gusting to 31 MPH (27 knots; 13.9 m/s)
Visibility: 6 or more miles (10+ km)
Ceiling: 4000 feet AGL
Clouds: few clouds at 800 feet AGL
scattered clouds at 2000 feet AGL
broken clouds at 4000 feet AGL
Weather: -SHRA  (light rain showers)

METAR text: RJNT 160150Z 25015G25KT 210V270 5000 SHRA BR FEW008 BKN015 BKN030 18/17 Q0997 RMK 1ST008 5CU015 7CU030 A2945
Conditions at: RJNT (TOYAMA AIRPORT , JP) observed 0150 UTC 16 June 2019
Temperature: 18.0°C (64°F)
Dewpoint: 17.0°C (63°F) [RH = 94%]
Pressure (altimeter): 29.44 inches Hg (997.0 mb)
Winds: from the WSW (250 degrees) at 17 MPH (15 knots; 7.7 m/s)
gusting to 29 MPH (25 knots; 12.9 m/s)
Visibility: 3 miles ( 5 km)
Ceiling: 1500 feet AGL
Clouds: few clouds at 800 feet AGL
broken clouds at 1500 feet AGL
broken clouds at 3000 feet AGL
Weather: SHRA BR  (rain showers, mist)

METAR text: RJNT 160138Z 25016KT 210V280 4000 -SHRA FEW008 SCT020 BKN030 19/17 Q0997 RMK 1ST008 4CU020 6CU030 A2944
Conditions at: RJNT (TOYAMA AIRPORT , JP) observed 0138 UTC 16 June 2019
Temperature: 19.0°C (66°F)
Dewpoint: 17.0°C (63°F) [RH = 88%]
Pressure (altimeter): 29.44 inches Hg (997.0 mb)
Winds: from the WSW (250 degrees) at 18 MPH (16 knots; 8.2 m/s)
Visibility: 2.49 miles (4.01 km)
Ceiling: 3000 feet AGL
Clouds: few clouds at 800 feet AGL
scattered clouds at 2000 feet AGL
broken clouds at 3000 feet AGL
Weather: -SHRA  (light rain showers)

METAR text: RJNT 160122Z 25015G27KT 9999 -SHRA FEW008 SCT020 BKN030 19/16 Q0996 RMK 1ST008 4CU020 6CU030 A2943
Conditions at: RJNT (TOYAMA AIRPORT , JP) observed 0122 UTC 16 June 2019
Temperature: 19.0°C (66°F)
Dewpoint: 16.0°C (61°F) [RH = 83%]
Pressure (altimeter): 29.41 inches Hg (996.0 mb)
Winds: from the WSW (250 degrees) at 17 MPH (15 knots; 7.7 m/s)
gusting to 31 MPH (27 knots; 13.9 m/s)
Visibility: 6 or more miles (10+ km)
Ceiling: 3000 feet AGL
Clouds: few clouds at 800 feet AGL
scattered clouds at 2000 feet AGL
broken clouds at 3000 feet AGL
Weather: -SHRA  (light rain showers)

METAR text: RJNT 160100Z 25017KT 9999 -SHRA FEW008 SCT020 BKN030 19/17 Q0996
Conditions at: RJNT (TOYAMA AIRPORT , JP) observed 0100 UTC 16 June 2019
Temperature: 19.0°C (66°F)
Dewpoint: 17.0°C (63°F) [RH = 88%]
Pressure (altimeter): 29.41 inches Hg (996.0 mb)
Winds: from the WSW (250 degrees) at 20 MPH (17 knots; 8.7 m/s)
Visibility: 6 or more miles (10+ km)
Ceiling: 3000 feet AGL
Clouds: few clouds at 800 feet AGL
scattered clouds at 2000 feet AGL
broken clouds at 3000 feet AGL
Weather: -SHRA  (light rain showers)

METAR text: RJNT 160046Z 25015G25KT 9999 -SHRA FEW005 BKN015 BKN030 19/17 Q0995 RMK 1ST005 5CU015 7CU030 A2941
Conditions at: RJNT (TOYAMA AIRPORT , JP) observed 0046 UTC 16 June 2019
Temperature: 19.0°C (66°F)
Dewpoint: 17.0°C (63°F) [RH = 88%]
Pressure (altimeter): 29.38 inches Hg (995.0 mb)
Winds: from the WSW (250 degrees) at 17 MPH (15 knots; 7.7 m/s)
gusting to 29 MPH (25 knots; 12.9 m/s)
Visibility: 6 or more miles (10+ km)
Ceiling: 1500 feet AGL
Clouds: few clouds at 500 feet AGL
broken clouds at 1500 feet AGL
broken clouds at 3000 feet AGL
Weather: -SHRA  (light rain showers)

METAR text: RJNT 160000Z 24013KT 9999 -SHRA FEW005 BKN015 BKN030 18/17 Q0995
Conditions at: RJNT (TOYAMA AIRPORT , JP) observed 0000 UTC 16 June 2019
Temperature: 18.0°C (64°F)
Dewpoint: 17.0°C (63°F) [RH = 94%]
Pressure (altimeter): 29.38 inches Hg (995.0 mb)
Winds: from the WSW (240 degrees) at 15 MPH (13 knots; 6.7 m/s)
Visibility: 6 or more miles (10+ km)
Ceiling: 1500 feet AGL
Clouds: few clouds at 500 feet AGL
broken clouds at 1500 feet AGL
broken clouds at 3000 feet AGL
Weather: -SHRA  (light rain showers)

METAR text: RJNT 152300Z 24013KT 9999 -SHRA FEW005 BKN020 BKN030 19/17 Q0994
Conditions at: RJNT (TOYAMA AIRPORT , JP) observed 2300 UTC 15 June 2019
Temperature: 19.0°C (66°F)
Dewpoint: 17.0°C (63°F) [RH = 88%]
Pressure (altimeter): 29.35 inches Hg (994.0 mb)
Winds: from the WSW (240 degrees) at 15 MPH (13 knots; 6.7 m/s)
Visibility: 6 or more miles (10+ km)
Ceiling: 2000 feet AGL
Clouds: few clouds at 500 feet AGL
broken clouds at 2000 feet AGL
broken clouds at 3000 feet AGL
Weather: -SHRA  (light rain showers)

METAR text: RJNT 152250Z 23014KT 9999 -SHRA FEW005 BKN020 BKN030 18/17 Q0994 RMK 1ST005 6CU020 7CU030 A2935
Conditions at: RJNT (TOYAMA AIRPORT , JP) observed 2250 UTC 15 June 2019
Temperature: 18.0°C (64°F)
Dewpoint: 17.0°C (63°F) [RH = 94%]
Pressure (altimeter): 29.35 inches Hg (994.0 mb)
Winds: from the SW (230 degrees) at 16 MPH (14 knots; 7.2 m/s)
Visibility: 6 or more miles (10+ km)
Ceiling: 2000 feet AGL
Clouds: few clouds at 500 feet AGL
broken clouds at 2000 feet AGL
broken clouds at 3000 feet AGL
Weather: -SHRA  (light rain showers)

METAR text: RJNT 152233Z 24012KT 6000 SHRA FEW005 BKN015 BKN030 18/17 Q0993 RMK 1ST005 6CU015 7CU030 A2935 3000S
Conditions at: RJNT (TOYAMA AIRPORT , JP) observed 2233 UTC 15 June 2019
Temperature: 18.0°C (64°F)
Dewpoint: 17.0°C (63°F) [RH = 94%]
Pressure (altimeter): 29.32 inches Hg (993.0 mb)
Winds: from the WSW (240 degrees) at 14 MPH (12 knots; 6.2 m/s)
Visibility: 4 miles ( 6 km)
Ceiling: 1500 feet AGL
Clouds: few clouds at 500 feet AGL
broken clouds at 1500 feet AGL
broken clouds at 3000 feet AGL
Weather: SHRA  (rain showers)

METAR text: RJNT 152221Z 23016KT 3500 SHRA BR FEW005 BKN015 BKN030 18/17 Q0993 RMK 1ST005 6CU015 7CU030 A2934
Conditions at: RJNT (TOYAMA AIRPORT , JP) observed 2221 UTC 15 June 2019
Temperature: 18.0°C (64°F)
Dewpoint: 17.0°C (63°F) [RH = 94%]
Pressure (altimeter): 29.32 inches Hg (993.0 mb)
Winds: from the SW (230 degrees) at 18 MPH (16 knots; 8.2 m/s)
Visibility: 2.17 miles (3.49 km)
Ceiling: 1500 feet AGL
Clouds: few clouds at 500 feet AGL
broken clouds at 1500 feet AGL
broken clouds at 3000 feet AGL
Weather: SHRA BR  (rain showers, mist)

METAR text: RJNT 152210Z 24014KT 4000 -SHRA BR FEW005 BKN015 BKN030 18/16 Q0993 RMK 1ST005 6CU015 7CU030 A2934
Conditions at: RJNT (TOYAMA AIRPORT , JP) observed 2210 UTC 15 June 2019
Temperature: 18.0°C (64°F)
Dewpoint: 16.0°C (61°F) [RH = 88%]
Pressure (altimeter): 29.32 inches Hg (993.0 mb)
Winds: from the WSW (240 degrees) at 16 MPH (14 knots; 7.2 m/s)
Visibility: 2.49 miles (4.01 km)
Ceiling: 1500 feet AGL
Clouds: few clouds at 500 feet AGL
broken clouds at 1500 feet AGL
broken clouds at 3000 feet AGL
Weather: -SHRA BR  (light rain showers, mist)

METAR text: RJNT 152200Z 24014KT 9999 -SHRA FEW005 BKN020 BKN030 18/16 Q0993
Conditions at: RJNT (TOYAMA AIRPORT , JP) observed 2200 UTC 15 June 2019
Temperature: 18.0°C (64°F)
Dewpoint: 16.0°C (61°F) [RH = 88%]
Pressure (altimeter): 29.32 inches Hg (993.0 mb)
Winds: from the WSW (240 degrees) at 16 MPH (14 knots; 7.2 m/s)
Visibility: 6 or more miles (10+ km)
Ceiling: 2000 feet AGL
Clouds: few clouds at 500 feet AGL
broken clouds at 2000 feet AGL
broken clouds at 3000 feet AGL
Weather: -SHRA  (light rain showers)

METAR text: RJNT 152110Z 24014KT 8000 -SHRA FEW005 BKN020 BKN030 18/16 Q0992 RMK 1ST005 5CU020 7CU030 A2931
Conditions at: RJNT (TOYAMA AIRPORT , JP) observed 2110 UTC 15 June 2019
Temperature: 18.0°C (64°F)
Dewpoint: 16.0°C (61°F) [RH = 88%]
Pressure (altimeter): 29.29 inches Hg (992.0 mb)
Winds: from the WSW (240 degrees) at 16 MPH (14 knots; 7.2 m/s)
Visibility: 5 miles ( 8 km)
Ceiling: 2000 feet AGL
Clouds: few clouds at 500 feet AGL
broken clouds at 2000 feet AGL
broken clouds at 3000 feet AGL
Weather: -SHRA  (light rain showers)

METAR text: RJNT 151200Z VRB01KT 9999 FEW010 SCT070 BKN/// 20/18 Q0986
Conditions at: RJNT (TOYAMA AIRPORT , JP) observed 1200 UTC 15 June 2019
Temperature: 20.0°C (68°F)
Dewpoint: 18.0°C (64°F) [RH = 88%]
Pressure (altimeter): 29.11 inches Hg (986.0 mb)
Winds: variable direction winds at 1 MPH (1 knots; 0.5 m/s)
Visibility: 6 or more miles (10+ km)
Ceiling: at least 12,000 feet AGL
Clouds: few clouds at 1000 feet AGL
scattered clouds at 7000 feet AGL
Weather: no significant weather observed at this time

METAR text: RJNT 151100Z VRB02KT 9999 VCSH FEW010 SCT070 BKN/// 20/19 Q0987
Conditions at: RJNT (TOYAMA AIRPORT , JP) observed 1100 UTC 15 June 2019
Temperature: 20.0°C (68°F)
Dewpoint: 19.0°C (66°F) [RH = 94%]
Pressure (altimeter): 29.14 inches Hg (987.0 mb)
Winds: variable direction winds at 2 MPH (2 knots; 1.0 m/s)
Visibility: 6 or more miles (10+ km)
Ceiling: at least 12,000 feet AGL
Clouds: few clouds at 1000 feet AGL
scattered clouds at 7000 feet AGL
Weather: VCSH  (showers in vicinity)

METAR text: RJNT 151000Z VRB01KT 9999 VCSH FEW010 SCT070 20/18 Q0987
Conditions at: RJNT (TOYAMA AIRPORT , JP) observed 1000 UTC 15 June 2019
Temperature: 20.0°C (68°F)
Dewpoint: 18.0°C (64°F) [RH = 88%]
Pressure (altimeter): 29.14 inches Hg (987.0 mb)
Winds: variable direction winds at 1 MPH (1 knots; 0.5 m/s)
Visibility: 6 or more miles (10+ km)
Ceiling: at least 12,000 feet AGL
Clouds: few clouds at 1000 feet AGL
scattered clouds at 7000 feet AGL
Weather: VCSH  (showers in vicinity)

METAR text: RJNT 150900Z 19003KT 120V270 9999 -SHRA FEW020 SCT030 FEW030CB BKN050 21/18 Q0989
Conditions at: RJNT (TOYAMA AIRPORT , JP) observed 0900 UTC 15 June 2019
Temperature: 21.0°C (70°F)
Dewpoint: 18.0°C (64°F) [RH = 83%]
Pressure (altimeter): 29.20 inches Hg (989.0 mb)
Winds: from the S (190 degrees) at 3 MPH (3 knots; 1.5 m/s)
Visibility: 6 or more miles (10+ km)
Ceiling: 5000 feet AGL
Clouds: few clouds at 2000 feet AGL
scattered clouds at 3000 feet AGL
few clouds at 3000 feet AGL
broken clouds at 5000 feet AGL
Weather: -SHRA  (light rain showers)

METAR text: RJNT 150844Z 26005KT 220V300 8000 SHRA FEW020 SCT030 FEW030CB BKN050 20/17 Q0989 RMK 1CU020 4CU030 1CB030 6CU050 A2922 CB 10KM W MOV N
Conditions at: RJNT (TOYAMA AIRPORT , JP) observed 0844 UTC 15 June 2019
Temperature: 20.0°C (68°F)
Dewpoint: 17.0°C (63°F) [RH = 83%]
Pressure (altimeter): 29.20 inches Hg (989.0 mb)
Winds: from the W (260 degrees) at 6 MPH (5 knots; 2.6 m/s)
Visibility: 5 miles ( 8 km)
Ceiling: 5000 feet AGL
Clouds: few clouds at 2000 feet AGL
scattered clouds at 3000 feet AGL
few clouds at 3000 feet AGL
broken clouds at 5000 feet AGL
Weather: SHRA  (rain showers)

METAR text: RJNT 150834Z 25005KT 210V290 4000 SHRA FEW020 BKN030 FEW030CB BKN050 21/18 Q0989 RMK 1CU020 5CU030 1CB030 6CU050 A2922 8000N-E CB 10KM S MOV N
Conditions at: RJNT (TOYAMA AIRPORT , JP) observed 0834 UTC 15 June 2019
Temperature: 21.0°C (70°F)
Dewpoint: 18.0°C (64°F) [RH = 83%]
Pressure (altimeter): 29.20 inches Hg (989.0 mb)
Winds: from the WSW (250 degrees) at 6 MPH (5 knots; 2.6 m/s)
Visibility: 2.49 miles (4.01 km)
Ceiling: 3000 feet AGL
Clouds: few clouds at 2000 feet AGL
broken clouds at 3000 feet AGL
few clouds at 3000 feet AGL
broken clouds at 5000 feet AGL
Weather: SHRA  (rain showers)

METAR text: RJNT 150820Z VRB02KT 9999 -TSRA FEW020 FEW030CB BKN050 22/18 Q0989 RMK 1CU020 1CB030 5CU050 A2922 FBL TS 15KM W-NW MOV N
Conditions at: RJNT (TOYAMA AIRPORT , JP) observed 0820 UTC 15 June 2019
Temperature: 22.0°C (72°F)
Dewpoint: 18.0°C (64°F) [RH = 78%]
Pressure (altimeter): 29.20 inches Hg (989.0 mb)
Winds: variable direction winds at 2 MPH (2 knots; 1.0 m/s)
Visibility: 6 or more miles (10+ km)
Ceiling: 5000 feet AGL
Clouds: few clouds at 2000 feet AGL
few clouds at 3000 feet AGL
broken clouds at 5000 feet AGL
Weather: -TSRA  (light rain associated with thunderstorm(s))

METAR text: RJNT 150808Z 22005KT 180V280 9999 TSRA FEW020 BKN030 FEW030CB BKN050 22/17 Q0989 RMK 1CU020 5CU030 1CB030 7CU050 A2922 FBL TS 10KM SW-W MOV N
Conditions at: RJNT (TOYAMA AIRPORT , JP) observed 0808 UTC 15 June 2019
Temperature: 22.0°C (72°F)
Dewpoint: 17.0°C (63°F) [RH = 73%]
Pressure (altimeter): 29.20 inches Hg (989.0 mb)
Winds: from the SW (220 degrees) at 6 MPH (5 knots; 2.6 m/s)
Visibility: 6 or more miles (10+ km)
Ceiling: 3000 feet AGL
Clouds: few clouds at 2000 feet AGL
broken clouds at 3000 feet AGL
few clouds at 3000 feet AGL
broken clouds at 5000 feet AGL
Weather: TSRA  (rain associated with thunderstorm(s))

METAR text: RJNT 150800Z 21004KT 9999 -TSRA FEW020 BKN030 FEW030CB BKN050 24/16 Q0989
Conditions at: RJNT (TOYAMA AIRPORT , JP) observed 0800 UTC 15 June 2019
Temperature: 24.0°C (75°F)
Dewpoint: 16.0°C (61°F) [RH = 61%]
Pressure (altimeter): 29.20 inches Hg (989.0 mb)
Winds: from the SSW (210 degrees) at 5 MPH (4 knots; 2.1 m/s)
Visibility: 6 or more miles (10+ km)
Ceiling: 3000 feet AGL
Clouds: few clouds at 2000 feet AGL
broken clouds at 3000 feet AGL
few clouds at 3000 feet AGL
broken clouds at 5000 feet AGL
Weather: -TSRA  (light rain associated with thunderstorm(s))

METAR text: RJNT 150746Z 24007KT 9999 -TSRA FEW020 FEW030CB BKN080 24/16 Q0988 RMK 1CU020 1CB030 6AC080 A2920 FBL TS 25KM S-SW MOV N
Conditions at: RJNT (TOYAMA AIRPORT , JP) observed 0746 UTC 15 June 2019
Temperature: 24.0°C (75°F)
Dewpoint: 16.0°C (61°F) [RH = 61%]
Pressure (altimeter): 29.17 inches Hg (988.0 mb)
Winds: from the WSW (240 degrees) at 8 MPH (7 knots; 3.6 m/s)
Visibility: 6 or more miles (10+ km)
Ceiling: 8000 feet AGL
Clouds: few clouds at 2000 feet AGL
few clouds at 3000 feet AGL
broken clouds at 8000 feet AGL
Weather: -TSRA  (light rain associated with thunderstorm(s))

METAR text: RJNT 150700Z 35003KT 240V060 9999 FEW020 SCT100 25/16 Q0988
Conditions at: RJNT (TOYAMA AIRPORT , JP) observed 0700 UTC 15 June 2019
Temperature: 25.0°C (77°F)
Dewpoint: 16.0°C (61°F) [RH = 57%]
Pressure (altimeter): 29.17 inches Hg (988.0 mb)
Winds: from the N (350 degrees) at 3 MPH (3 knots; 1.5 m/s)
Visibility: 6 or more miles (10+ km)
Ceiling: at least 12,000 feet AGL
Clouds: few clouds at 2000 feet AGL
scattered clouds at 10000 feet AGL
Weather: no significant weather observed at this time

METAR text: RJNT 150600Z 33004KT 290V030 9999 FEW020 BKN100 24/16 Q0989
Conditions at: RJNT (TOYAMA AIRPORT , JP) observed 0600 UTC 15 June 2019
Temperature: 24.0°C (75°F)
Dewpoint: 16.0°C (61°F) [RH = 61%]
Pressure (altimeter): 29.20 inches Hg (989.0 mb)
Winds: from the NNW (330 degrees) at 5 MPH (4 knots; 2.1 m/s)
Visibility: 6 or more miles (10+ km)
Ceiling: 10000 feet AGL
Clouds: few clouds at 2000 feet AGL
broken clouds at 10000 feet AGL
Weather: no significant weather observed at this time

METAR text: RJNT 150500Z VRB02KT 9999 FEW020 BKN080 BKN/// 24/15 Q0991
Conditions at: RJNT (TOYAMA AIRPORT , JP) observed 0500 UTC 15 June 2019
Temperature: 24.0°C (75°F)
Dewpoint: 15.0°C (59°F) [RH = 57%]
Pressure (altimeter): 29.26 inches Hg (991.0 mb)
Winds: variable direction winds at 2 MPH (2 knots; 1.0 m/s)
Visibility: 6 or more miles (10+ km)
Ceiling: 8000 feet AGL
Clouds: few clouds at 2000 feet AGL
broken clouds at 8000 feet AGL
Weather: no significant weather observed at this time

Forecast for: RJNT (TOYAMA AIRPORT , JP)
Text: TAF RJNT 161109Z 1612/1718 24006KT 9999 FEW008 BKN015
Forecast period: 1200 UTC 16 June 2019 to 0000 UTC 17 June 2019
Forecast type: FROM: standard forecast or significant change
Winds: from the WSW (240 degrees) at 7 MPH (6 knots; 3.1 m/s)
Visibility: 6 or more miles 10+ km)
Ceiling: 1500 feet AGL
Clouds: few clouds at 800 feet AGL
broken clouds at 1500 feet AGL
Weather: no significant weather forecast for this period
Text: BECMG 1700/1703 36006KT
Forecast period: 0000 to 1200 UTC 17 June 2019
Forecast type: BECOMING: Conditions expected to become as follows by 0300 UTC 17 June 2019
Winds: from the N (360 degrees) at 7 MPH (6 knots; 3.1 m/s)
Visibility: 6 or more miles 10+ km)
Ceiling: 1500 feet AGL
Clouds: few clouds at 800 feet AGL
broken clouds at 1500 feet AGL
Weather: no significant weather forecast for this period
Text: BECMG 1712/1715 18004KT
Forecast period: 1200 to 1800 UTC 17 June 2019
Forecast type: BECOMING: Conditions expected to become as follows by 1500 UTC 17 June 2019
Winds: from the S (180 degrees) at 5 MPH (4 knots; 2.1 m/s)
Visibility: 6 or more miles 10+ km)
Ceiling: 1500 feet AGL
Clouds: few clouds at 800 feet AGL
broken clouds at 1500 feet AGL
Weather: no significant weather forecast for this period